Time;durP1;ratioP1;P1;durP2;ratioP2;P2;SDS_P1;SDS_P2;PMS_P1;PMS_P2;Temp;Humidity;BMP_temperature;BMP_pressure;BME280_temperature;BME280_humidity;BME280_pressure;Samples;Min_cycle;Max_cycle;Signal;HPM_P1;HPM_P2
2023/07/01 00:00:25;;;;;;;5.30;3.80;;;;;;;25.93;79.11;99748.04;106463;1254;61237;-82
2023/07/01 00:03:18;;;;;;;;;;;;;;;25.91;79.63;99747.00;106449;1253;61320;-82
2023/07/01 00:06:06;;;;;;;4.10;3.20;;;;;;;25.89;80.17;99744.45;106485;1251;66077;-85
2023/07/01 00:08:54;;;;;;;5.90;3.80;;;;;;;25.83;80.98;99746.59;106681;1251;61672;-85
2023/07/01 00:11:42;;;;;;;4.00;3.50;;;;;;;25.95;80.78;99746.50;106794;1255;64141;-85
2023/07/01 00:14:30;;;;;;;6.10;3.90;;;;;;;25.85;81.75;99748.73;106686;1252;61417;-85
2023/07/01 00:17:18;;;;;;;6.00;3.60;;;;;;;25.89;82.02;99754.27;106403;1254;61141;-82
2023/07/01 00:20:07;;;;;;;7.30;3.70;;;;;;;25.75;83.48;99754.17;106393;1252;64765;-86
2023/07/01 00:22:54;;;;;;;5.20;3.40;;;;;;;25.60;85.28;99755.13;106498;1256;61330;-86
2023/07/01 00:25:43;;;;;;;4.40;3.80;;;;;;;25.42;86.95;99756.22;106522;1251;63273;-86
2023/07/01 00:28:30;;;;;;;4.80;3.90;;;;;;;25.53;86.95;99755.43;106513;1256;61230;-86
2023/07/01 00:31:20;;;;;;;5.90;3.60;;;;;;;25.61;86.80;99756.31;106460;1256;61259;-83
2023/07/01 00:34:08;;;;;;;5.60;4.00;;;;;;;25.63;86.71;99757.84;106661;1253;64542;-86
2023/07/01 00:36:56;;;;;;;7.00;4.00;;;;;;;25.58;87.36;99764.23;106749;1254;61218;-86
2023/07/01 00:39:45;;;;;;;6.40;4.10;;;;;;;25.65;87.33;99763.83;106599;1254;64931;-86
2023/07/01 00:42:33;;;;;;;4.20;3.80;;;;;;;25.60;87.73;99765.02;106417;1254;61351;-83
2023/07/01 00:45:21;;;;;;;6.10;4.20;;;;;;;25.55;88.42;99769.10;106516;1254;61189;-83
2023/07/01 00:48:20;;;;;;;7.10;4.30;;;;;;;25.43;90.59;99773.31;106607;1251;73688;-83
2023/07/01 00:51:08;;;;;;;6.10;3.80;;;;;;;25.50;90.63;99774.29;106342;1256;61289;-83
2023/07/01 00:53:57;;;;;;;8.70;4.60;;;;;;;25.50;91.09;99774.84;106635;1254;64060;-83
2023/07/01 00:56:44;;;;;;;9.30;4.30;;;;;;;25.53;91.86;99771.59;106542;1258;61365;-83
2023/07/01 00:59:35;;;;;;;6.10;4.50;;;;;;;25.51;92.33;99773.66;106344;1256;61179;-83
2023/07/01 01:02:28;;;;;;;5.70;4.20;;;;;;;25.62;92.17;99774.54;106297;1254;66774;-86
2023/07/01 01:05:18;;;;;;;9.20;4.60;;;;;;;25.66;92.15;99772.79;106319;1253;61433;-83
2023/07/01 01:08:12;;;;;;;7.70;4.70;;;;;;;25.80;90.74;99771.21;106813;1253;62476;-83
2023/07/01 01:11:00;;;;;;;7.30;4.70;;;;;;;25.75;90.98;99770.56;106772;1254;61151;-83
2023/07/01 01:13:48;;;;;;;8.30;4.60;;;;;;;25.62;91.64;99767.83;106380;1251;61212;-86
2023/07/01 01:16:40;;;;;;;6.90;4.70;;;;;;;25.53;92.41;99770.13;106605;1255;67157;-83
2023/07/01 01:19:47;;;;;;;8.10;5.00;;;;;;;25.45;93.46;99769.23;106686;1254;70276;-84
2023/07/01 01:22:37;;;;;;;5.50;4.50;;;;;;;25.46;93.19;99771.80;106910;1251;73960;-83
2023/07/01 01:26:07;;;;;;;6.60;4.60;;;;;;;25.48;93.36;99772.37;106754;1251;61247;-83
2023/07/01 01:28:55;;;;;;;5.60;4.60;;;;;;;25.47;93.37;99774.76;106705;1252;61308;-83
2023/07/01 01:31:43;;;;;;;6.20;4.60;;;;;;;25.53;93.03;99775.58;106748;1251;65989;-85
2023/07/01 01:34:31;;;;;;;7.80;4.60;;;;;;;25.69;91.73;99780.06;106241;1254;61256;-86
2023/07/01 01:37:27;;;;;;;9.70;4.70;;;;;;;25.61;92.47;99779.09;106604;1256;62841;-83
2023/07/01 01:40:23;;;;;;;6.90;4.60;;;;;;;25.57;93.00;99780.85;106330;1253;61233;-86
2023/07/01 01:43:11;;;;;;;9.20;5.00;;;;;;;25.61;93.03;99782.45;106464;1253;61177;-86
2023/07/01 01:45:59;;;;;;;8.60;4.90;;;;;;;25.56;93.39;99780.52;106488;1253;65819;-86
2023/07/01 01:48:47;;;;;;;9.30;5.30;;;;;;;25.60;93.04;99781.98;106786;1255;61106;-83
2023/07/01 01:51:37;;;;;;;7.10;5.30;;;;;;;25.52;93.34;99782.27;106484;1254;62573;-85
2023/07/01 01:54:25;;;;;;;6.70;4.50;;;;;;;25.48;93.72;99785.55;106475;1256;61229;-82
2023/07/01 01:57:14;;;;;;;5.90;4.50;;;;;;;25.49;93.67;99790.02;106346;1252;61163;-81
2023/07/01 02:00:08;;;;;;;11.10;5.20;;;;;;;25.54;92.80;99792.84;106301;1253;74463;-81
2023/07/01 02:03:02;;;;;;;9.10;5.30;;;;;;;25.51;93.10;99792.66;106432;1254;61228;-84
2023/07/01 02:05:50;;;;;;;5.60;4.80;;;;;;;25.53;92.96;99791.55;106410;1253;64512;-85
2023/07/01 02:08:41;;;;;;;6.50;5.30;;;;;;;25.55;92.46;99791.31;106385;1252;61228;-81
2023/07/01 02:11:29;;;;;;;7.90;5.40;;;;;;;25.46;93.57;99788.02;106331;1254;61352;-85
2023/07/01 02:14:17;;;;;;;6.30;5.40;;;;;;;25.63;92.07;99788.70;106188;1252;66349;-82
2023/07/01 02:17:05;;;;;;;9.50;5.50;;;;;;;25.50;92.66;99792.59;106322;1253;61269;-82
2023/07/01 02:19:53;;;;;;;7.00;5.00;;;;;;;25.41;93.73;99791.61;106742;1255;64134;-82
2023/07/01 02:22:41;;;;;;;8.60;6.10;;;;;;;25.45;93.79;99791.38;106779;1254;60708;-85
2023/07/01 02:25:29;;;;;;;7.30;5.00;;;;;;;25.51;93.57;99794.74;106346;1258;61701;-82
2023/07/01 02:28:16;;;;;;;8.20;5.40;;;;;;;25.60;92.77;99797.09;106564;1254;64533;-82
2023/07/01 02:31:05;;;;;;;8.70;5.10;;;;;;;25.50;93.82;99797.06;106749;1253;61262;-85
2023/07/01 02:34:00;;;;;;;8.40;5.30;;;;;;;25.74;92.50;99804.54;106838;1253;63916;-85
2023/07/01 02:36:48;;;;;;;9.30;5.70;;;;;;;25.70;92.71;99807.17;106467;1253;61333;-84
2023/07/01 02:39:37;;;;;;;7.90;5.30;;;;;;;25.72;93.03;99808.69;106536;1254;61288;-82
2023/07/01 02:42:26;;;;;;;8.70;5.30;;;;;;;25.78;92.70;99809.89;106479;1254;64627;-85
2023/07/01 02:45:14;;;;;;;9.20;5.70;;;;;;;25.96;91.41;99810.71;106431;1251;61286;-82
2023/07/01 02:48:02;;;;;;;7.40;4.80;;;;;;;26.11;90.38;99809.20;106485;1251;64048;-82
2023/07/01 02:50:50;;;;;;;8.50;5.30;;;;;;;25.94;91.84;99810.56;106438;1254;61282;-81
2023/07/01 02:53:38;;;;;;;7.90;5.00;;;;;;;26.08;91.08;99811.52;106534;1251;61209;-85
2023/07/01 02:56:26;;;;;;;7.20;5.00;;;;;;;26.17;90.57;99810.41;106606;1256;65714;-85
2023/07/01 02:59:14;;;;;;;7.20;4.20;;;;;;;26.15;90.75;99811.86;106617;1251;61362;-82
2023/07/01 03:02:05;;;;;;;7.20;4.70;;;;;;;26.11;91.12;99810.73;106466;1254;62742;-85
2023/07/01 03:04:53;;;;;;;6.10;4.90;;;;;;;26.30;89.77;99811.04;106433;1254;61346;-86
2023/07/01 03:07:42;;;;;;;7.10;5.00;;;;;;;26.55;87.69;99813.97;106542;1252;61349;-82
2023/07/01 03:10:30;;;;;;;7.10;4.70;;;;;;;26.83;85.53;99816.31;106391;1257;65863;-85
2023/07/01 03:13:18;;;;;;;8.10;4.90;;;;;;;27.16;83.01;99815.79;106493;1254;61362;-85
2023/07/01 03:16:07;;;;;;;5.80;4.80;;;;;;;27.18;82.41;99822.84;106434;1256;62960;-82
2023/07/01 03:18:55;;;;;;;6.00;4.70;;;;;;;27.07;83.20;99822.71;106649;1255;61333;-82
2023/07/01 03:21:47;;;;;;;6.80;4.70;;;;;;;27.14;82.76;99820.60;106466;1255;61237;-86
2023/07/01 03:24:35;;;;;;;11.00;5.40;;;;;;;27.45;80.36;99824.63;106573;1254;65731;-86
2023/07/01 03:27:25;;;;;;;7.70;4.70;;;;;;;27.81;77.58;99828.91;106333;1256;61373;-82
2023/07/01 03:30:13;;;;;;;6.60;4.90;;;;;;;28.10;74.67;99827.81;106465;1252;63846;-86
2023/07/01 03:33:03;;;;;;;6.00;4.70;;;;;;;28.14;74.24;99829.48;106596;1256;61342;-86
2023/07/01 03:35:51;;;;;;;8.40;5.60;;;;;;;28.03;74.64;99831.48;106282;1256;61352;-82
2023/07/01 03:38:39;;;;;;;7.10;4.60;;;;;;;28.05;74.41;99831.95;106655;1254;66073;-86
2023/07/01 03:41:27;;;;;;;6.70;4.70;;;;;;;27.80;76.05;99835.26;106534;1254;61346;-82
2023/07/01 03:44:15;;;;;;;8.60;4.90;;;;;;;28.00;74.64;99833.44;106499;1254;62660;-86
2023/07/01 03:47:03;;;;;;;7.00;5.00;;;;;;;28.20;73.73;99837.77;106694;1255;59656;-86
2023/07/01 03:49:51;;;;;;;7.50;4.60;;;;;;;28.25;73.33;99839.80;106455;1252;61161;-83
2023/07/01 03:52:39;;;;;;;6.70;4.60;;;;;;;28.39;72.02;99844.50;106476;1254;66011;-83
2023/07/01 03:55:28;;;;;;;9.80;5.50;;;;;;;28.54;70.65;99850.56;106533;1256;61163;-82
2023/07/01 03:58:21;;;;;;;7.10;5.10;;;;;;;28.58;69.49;99851.42;106546;1255;64106;-82
2023/07/01 04:01:09;;;;;;;;;;;;;;;28.62;68.65;99850.56;106431;1251;61250;-83
2023/07/01 04:03:57;;;;;;;6.40;4.90;;;;;;;28.53;69.32;99851.61;106666;1256;61222;-82
2023/07/01 04:06:45;;;;;;;6.20;5.40;;;;;;;28.54;69.68;99851.69;106543;1256;65991;-83
2023/07/01 04:09:34;;;;;;;6.20;4.80;;;;;;;28.56;69.40;99850.63;106674;1254;61297;-85
2023/07/01 04:12:22;;;;;;;5.70;4.70;;;;;;;28.58;68.92;99856.71;106503;1256;64977;-86
2023/07/01 04:15:10;;;;;;;8.60;5.20;;;;;;;28.67;69.12;99855.90;106308;1256;214262;-83
2023/07/01 04:17:58;;;;;;;8.10;4.80;;;;;;;28.91;66.47;99853.46;106472;1257;59954;-83
2023/07/01 04:20:46;;;;;;;7.00;5.00;;;;;;;28.81;67.28;99853.50;106413;1254;66378;-86
2023/07/01 04:23:35;;;;;;;8.10;5.50;;;;;;;28.96;66.95;99858.48;106842;1253;61214;-87
2023/07/01 04:26:24;;;;;;;8.50;5.30;;;;;;;28.98;66.35;99861.90;106711;1255;62619;-86
2023/07/01 04:29:12;;;;;;;7.40;5.30;;;;;;;29.13;65.74;99863.44;106449;1252;61428;-86
2023/07/01 04:32:00;;;;;;;9.30;5.40;;;;;;;29.42;64.30;99861.05;106475;1254;61325;-83
2023/07/01 04:34:48;;;;;;;8.50;5.60;;;;;;;29.49;63.82;99859.28;106412;1254;66105;-86
2023/07/01 04:37:36;;;;;;;6.90;5.30;;;;;;;29.50;63.12;99861.12;106505;1257;61144;-88
2023/07/01 04:40:24;;;;;;;6.80;4.90;;;;;;;29.58;61.83;99868.73;106445;1254;63982;-87
2023/07/01 04:43:12;;;;;;;6.70;5.40;;;;;;;29.49;62.28;99870.62;106433;1251;61243;-83
2023/07/01 04:46:00;;;;;;;6.70;5.10;;;;;;;29.71;61.47;99876.77;106548;1253;61342;-85
2023/07/01 04:48:48;;;;;;;9.20;5.50;;;;;;;29.90;60.92;99871.91;106470;1254;65859;-82
2023/07/01 04:51:36;;;;;;;7.00;5.30;;;;;;;29.96;60.71;99872.48;106475;1256;61253;-83
2023/07/01 04:54:24;;;;;;;9.50;5.90;;;;;;;29.96;59.92;99874.63;106507;1254;64501;-83
2023/07/01 04:57:12;;;;;;;8.10;6.20;;;;;;;30.02;59.84;99874.13;106480;1254;61235;-87
2023/07/01 05:00:02;;;;;;;6.80;5.60;;;;;;;30.08;59.68;99879.69;106404;1256;61339;-86
2023/07/01 05:02:50;;;;;;;6.80;5.40;;;;;;;30.16;60.20;99876.09;106689;1254;65948;-86
2023/07/01 05:05:39;;;;;;;9.20;5.70;;;;;;;30.37;58.80;99874.88;106451;1256;61269;-83
2023/07/01 05:08:28;;;;;;;8.60;5.90;;;;;;;30.33;59.06;99873.58;106344;1254;64048;-83
2023/07/01 05:11:16;;;;;;;7.40;5.50;;;;;;;30.47;58.97;99874.64;106541;1255;61338;-83
2023/07/01 05:14:04;;;;;;;9.10;5.70;;;;;;;30.68;58.15;99873.93;106379;1254;61204;-83
2023/07/01 05:16:52;;;;;;;8.30;5.90;;;;;;;30.88;57.72;99874.88;106664;1253;66041;-86
2023/07/01 05:19:40;;;;;;;7.90;5.80;;;;;;;31.01;56.22;99874.79;106351;1259;61369;-86
2023/07/01 05:22:29;;;;;;;8.80;6.00;;;;;;;31.14;55.46;99876.14;106427;1256;64120;-83
2023/07/01 05:25:19;;;;;;;10.30;5.70;;;;;;;31.10;56.47;99879.20;106459;1253;61335;-83
2023/07/01 05:28:07;;;;;;;7.40;5.80;;;;;;;31.26;56.76;99877.42;106499;1256;61183;-87
2023/07/01 05:30:55;;;;;;;8.50;6.30;;;;;;;31.49;55.74;99875.92;106452;1255;65884;-86
2023/07/01 05:33:46;;;;;;;10.60;6.10;;;;;;;31.66;54.08;99876.76;106475;1255;61354;-83
2023/07/01 05:36:34;;;;;;;8.10;5.80;;;;;;;31.67;53.96;99880.28;106458;1252;64334;-83
2023/07/01 05:39:23;;;;;;;8.20;5.80;;;;;;;31.81;52.98;99882.22;106465;1252;61349;-86
2023/07/01 05:42:11;;;;;;;7.50;5.50;;;;;;;31.90;52.39;99882.81;106279;1253;61332;-83
2023/07/01 05:44:59;;;;;;;7.70;5.70;;;;;;;32.05;52.29;99880.15;106401;1254;64770;-83
2023/07/01 05:47:47;;;;;;;7.40;6.00;;;;;;;32.29;50.49;99881.81;106423;1254;61346;-86
2023/07/01 05:50:35;;;;;;;8.80;6.00;;;;;;;32.32;48.44;99884.65;106385;1256;72910;-86
2023/07/01 05:53:24;;;;;;;7.70;5.80;;;;;;;32.38;48.49;99888.39;106441;1254;61387;-82
2023/07/01 05:56:12;;;;;;;9.80;6.00;;;;;;;32.48;48.02;99892.90;106574;1254;61221;-85
2023/07/01 05:59:00;;;;;;;8.40;5.80;;;;;;;32.61;47.19;99895.40;106332;1253;64664;-83
2023/07/01 06:01:47;;;;;;;7.00;5.90;;;;;;;32.64;47.63;99898.48;106602;1254;61345;-83
2023/07/01 06:04:35;;;;;;;7.70;5.90;;;;;;;32.77;47.53;99897.16;106751;1254;64603;-83
2023/07/01 06:07:24;;;;;;;8.30;5.90;;;;;;;32.83;47.75;99895.73;106451;1260;61290;-86
2023/07/01 06:10:13;;;;;;;7.30;5.80;;;;;;;32.82;47.53;99896.55;106455;1257;61211;-87
2023/07/01 06:13:02;;;;;;;10.40;5.30;;;;;;;32.89;47.06;99896.86;106590;1255;66056;-85
2023/07/01 06:15:50;;;;;;;8.30;6.20;;;;;;;33.03;46.71;99896.82;106383;1256;61183;-84
2023/07/01 06:18:39;;;;;;;7.60;5.30;;;;;;;33.14;46.75;99893.51;106634;1255;64029;-84
2023/07/01 06:21:27;;;;;;;8.20;6.40;;;;;;;33.22;46.06;99894.58;106484;1257;61177;-84
2023/07/01 06:24:15;;;;;;;8.70;5.90;;;;;;;33.38;45.71;99896.77;106506;1254;61629;-83
2023/07/01 06:27:04;;;;;;;7.30;5.80;;;;;;;33.61;45.61;99896.29;106499;1258;66033;-83
2023/07/01 06:29:53;;;;;;;6.80;5.90;;;;;;;33.63;45.54;99896.95;106369;1255;61260;-83
2023/07/01 06:32:41;;;;;;;6.90;5.60;;;;;;;33.68;45.51;99895.34;106302;1257;62810;-87
2023/07/01 06:35:29;;;;;;;6.90;5.50;;;;;;;33.95;45.84;99893.85;106209;1254;61314;-87
2023/07/01 06:38:17;;;;;;;6.10;5.10;;;;;;;34.23;45.66;99895.88;106586;1251;61254;-87
2023/07/01 06:41:05;;;;;;;8.50;6.00;;;;;;;34.50;43.99;99894.42;106479;1254;64708;-84
2023/07/01 06:43:53;;;;;;;8.90;6.00;;;;;;;34.63;43.62;99894.05;106528;1255;61349;-87
2023/07/01 06:46:41;;;;;;;8.40;6.10;;;;;;;34.78;42.87;99896.79;106459;1255;64838;-85
2023/07/01 06:49:29;;;;;;;8.50;5.80;;;;;;;34.90;41.54;99897.82;106500;1257;61330;-85
2023/07/01 06:52:17;;;;;;;9.90;6.10;;;;;;;34.85;41.47;99898.73;106572;1256;61163;-83
2023/07/01 06:55:07;;;;;;;8.90;5.30;;;;;;;34.88;41.59;99900.16;106335;1256;64859;-86
2023/07/01 06:57:55;;;;;;;8.50;5.70;;;;;;;34.89;40.88;99899.86;106453;1259;61128;-84
2023/07/01 07:00:43;;;;;;;6.40;5.30;;;;;;;34.95;40.85;99901.38;106447;1254;63929;-84
2023/07/01 07:03:32;;;;;;;6.30;4.80;;;;;;;35.03;41.11;99903.85;106847;1251;59746;-84
2023/07/01 07:06:20;;;;;;;7.20;5.00;;;;;;;35.18;40.81;99899.58;106501;1254;61324;-85
2023/07/01 07:09:08;;;;;;;8.00;5.30;;;;;;;35.51;40.23;99901.52;106486;1254;64656;-83
2023/07/01 07:11:56;;;;;;;6.00;4.40;;;;;;;35.65;39.13;99899.86;106585;1256;61365;-84
2023/07/01 07:14:44;;;;;;;6.80;5.20;;;;;;;35.79;38.44;99897.62;106427;1255;64012;-83
2023/07/01 07:17:33;;;;;;;6.80;5.20;;;;;;;35.83;38.70;99894.54;106326;1259;61259;-86
2023/07/01 07:20:21;;;;;;;5.80;5.20;;;;;;;35.91;38.48;99895.02;106369;1252;61263;-85
2023/07/01 07:23:10;;;;;;;8.30;5.40;;;;;;;35.97;37.66;99898.20;106566;1251;64451;-86
2023/07/01 07:25:57;;;;;;;7.50;4.90;;;;;;;36.04;37.90;99897.51;106444;1256;61238;-83
2023/07/01 07:28:45;;;;;;;7.00;4.90;;;;;;;36.15;36.94;99895.61;106415;1256;64056;-83
2023/07/01 07:31:35;;;;;;;5.90;4.70;;;;;;;36.29;37.02;99887.55;106573;1257;61250;-88
2023/07/01 07:34:24;;;;;;;5.90;5.30;;;;;;;36.63;37.24;99888.10;106555;1255;61260;-83
2023/07/01 07:37:14;;;;;;;5.40;4.60;;;;;;;36.84;35.75;99889.20;106912;1254;66053;-81
2023/07/01 07:40:05;;;;;;;6.50;4.80;;;;;;;37.16;35.37;99885.52;106919;1254;61304;-85
2023/07/01 07:42:53;;;;;;;5.40;4.50;;;;;;;37.39;35.25;99884.88;106201;1260;62589;-81
2023/07/01 07:45:42;;;;;;;6.40;4.30;;;;;;;37.54;33.99;99886.95;106538;1251;61295;-84
2023/07/01 07:48:30;;;;;;;5.60;4.90;;;;;;;37.56;33.76;99877.73;106497;1256;61208;-82
2023/07/01 07:51:18;;;;;;;7.10;4.60;;;;;;;37.70;33.55;99872.17;106652;1250;65925;-84
2023/07/01 07:54:07;;;;;;;5.40;4.70;;;;;;;37.85;33.72;99869.20;106428;1255;61284;-82
2023/07/01 07:56:58;;;;;;;6.00;4.50;;;;;;;38.15;33.24;99871.95;106507;1251;63902;-81
2023/07/01 07:59:46;;;;;;;7.10;4.60;;;;;;;38.58;32.10;99872.77;106138;1255;61210;-81
2023/07/01 08:02:38;;;;;;;6.20;4.60;;;;;;;38.71;31.01;99873.52;106349;1259;61202;-81
2023/07/01 08:05:26;;;;;;;6.20;5.00;;;;;;;38.61;30.79;99875.44;106337;1257;67166;-82
2023/07/01 08:08:15;;;;;;;7.30;4.30;;;;;;;38.55;30.29;99873.80;106339;1252;61263;-82
2023/07/01 08:11:02;;;;;;;8.00;4.70;;;;;;;38.62;30.46;99875.09;106342;1257;64395;-84
2023/07/01 08:13:50;;;;;;;4.90;3.90;;;;;;;38.65;30.28;99869.10;106334;1257;61310;-82
2023/07/01 08:16:39;;;;;;;5.50;4.30;;;;;;;38.71;30.65;99870.61;106410;1252;61330;-81
2023/07/01 08:19:27;;;;;;;4.70;3.90;;;;;;;38.58;30.45;99871.69;106267;1255;65986;-84
2023/07/01 08:22:14;;;;;;;4.30;3.90;;;;;;;38.34;30.88;99871.98;106435;1257;61218;-81
2023/07/01 08:25:02;;;;;;;5.00;3.80;;;;;;;38.51;30.31;99869.11;106487;1255;64087;-82
2023/07/01 08:27:50;;;;;;;7.00;4.30;;;;;;;38.67;29.13;99866.48;106760;1255;61240;-84
2023/07/01 08:30:38;;;;;;;6.10;4.00;;;;;;;38.99;28.63;99866.34;106339;1252;61317;-84
2023/07/01 08:33:28;;;;;;;5.20;4.00;;;;;;;39.22;28.42;99867.56;106399;1256;65846;-81
2023/07/01 08:36:16;;;;;;;5.70;3.80;;;;;;;39.20;28.30;99866.98;106417;1255;61241;-85
2023/07/01 08:39:04;;;;;;;5.40;3.90;;;;;;;38.91;28.30;99870.12;106433;1256;63835;-85
2023/07/01 08:42:02;;;;;;;4.30;3.60;;;;;;;38.57;28.47;99868.30;106493;1254;61320;-83
2023/07/01 08:44:50;;;;;;;4.90;3.70;;;;;;;38.21;28.84;99867.61;106339;1254;61275;-80
2023/07/01 08:47:40;;;;;;;4.60;3.70;;;;;;;38.20;29.44;99867.91;106400;1257;66985;-81
2023/07/01 08:50:37;;;;;;;4.60;3.60;;;;;;;38.13;29.13;99865.80;106371;1254;61237;-84
2023/07/01 08:53:25;;;;;;;4.80;3.70;;;;;;;38.09;28.88;99865.08;106349;1253;64484;-81
2023/07/01 08:56:14;;;;;;;6.50;3.40;;;;;;;38.38;28.39;99861.13;106358;1256;61284;-81
2023/07/01 08:59:01;;;;;;;4.60;3.50;;;;;;;38.50;28.52;99862.05;106355;1254;61232;-81
2023/07/01 09:01:50;;;;;;;4.60;3.80;;;;;;;38.48;28.52;99864.02;106314;1255;66046;-81
2023/07/01 09:04:38;;;;;;;6.10;3.50;;;;;;;38.59;28.90;99863.98;106371;1253;61170;-81
2023/07/01 09:07:26;;;;;;;4.00;3.60;;;;;;;38.87;28.45;99861.54;106444;1251;63115;-84
2023/07/01 09:10:15;;;;;;;5.00;3.30;;;;;;;38.99;28.32;99862.94;106305;1250;61267;-81
2023/07/01 09:13:12;;;;;;;3.40;3.10;;;;;;;39.17;28.30;99860.98;106288;1257;61259;-81
2023/07/01 09:16:00;;;;;;;4.80;3.50;;;;;;;39.32;28.17;99863.37;106664;1256;65782;-81
2023/07/01 09:18:48;;;;;;;5.20;3.40;;;;;;;39.31;27.66;99864.80;106243;1257;61275;-82
2023/07/01 09:21:37;;;;;;;4.70;3.20;;;;;;;39.12;27.28;99864.77;106247;1258;64748;-84
2023/07/01 09:24:37;;;;;;;6.30;3.40;;;;;;;38.95;27.69;99861.20;106437;1251;61236;-85
2023/07/01 09:27:25;;;;;;;4.10;3.30;;;;;;;38.87;28.29;99854.36;106523;1254;61230;-85
2023/07/01 09:30:19;;;;;;;5.70;3.40;;;;;;;39.02;28.47;99855.43;106320;1258;65825;-84
2023/07/01 09:33:11;;;;;;;3.50;3.10;;;;;;;39.22;28.32;99856.38;106442;1254;61260;-81
2023/07/01 09:36:02;;;;;;;;;;;;;;;39.46;28.33;99855.06;106395;1258;64048;-80
2023/07/01 09:38:53;;;;;;;5.40;3.20;;;;;;;39.59;27.65;99854.27;106385;1257;61273;-79
2023/07/01 09:41:41;;;;;;;3.30;3.00;;;;;;;39.69;27.15;99855.89;106431;1257;61268;-80
2023/07/01 09:44:31;;;;;;;4.80;3.00;;;;;;;39.70;26.67;99854.92;106303;1256;66032;-84
2023/07/01 09:47:26;;;;;;;4.20;3.40;;;;;;;39.80;26.66;99850.25;106159;1258;61273;-83
2023/07/01 09:50:24;;;;;;;3.40;3.10;;;;;;;39.83;26.08;99846.14;106506;1257;64076;-83
2023/07/01 09:53:18;;;;;;;4.80;3.00;;;;;;;39.72;25.92;99853.95;106363;1252;61587;-84
2023/07/01 09:56:07;;;;;;;4.10;3.30;;;;;;;39.63;25.65;99848.27;106698;1252;61768;-81
2023/07/01 09:58:55;;;;;;;3.60;3.00;;;;;;;39.66;25.79;99844.56;106483;1256;66029;-81
2023/07/01 10:01:43;;;;;;;4.70;3.10;;;;;;;39.73;26.11;99842.80;106587;1256;61269;-83
2023/07/01 10:04:31;;;;;;;3.70;2.60;;;;;;;39.96;25.83;99838.84;106358;1256;62803;-80
2023/07/01 10:07:19;;;;;;;3.30;2.40;;;;;;;40.20;23.98;99838.42;106314;1257;61355;-81
2023/07/01 10:10:17;;;;;;;3.50;2.70;;;;;;;40.10;23.47;99835.93;106326;1254;61285;-81
2023/07/01 10:13:06;;;;;;;3.90;2.60;;;;;;;40.01;24.10;99831.90;106323;1255;65827;-83
2023/07/01 10:15:54;;;;;;;2.70;2.50;;;;;;;40.01;24.14;99829.45;106374;1251;61302;-84
2023/07/01 10:18:42;;;;;;;2.90;2.60;;;;;;;39.89;23.93;99832.92;106280;1257;63699;-80
2023/07/01 10:21:30;;;;;;;5.10;2.50;;;;;;;39.97;23.52;99831.06;106275;1257;61281;-80
2023/07/01 10:24:36;;;;;;;3.10;2.20;;;;;;;39.93;22.95;99830.23;106382;1256;61309;-83
2023/07/01 10:27:41;;;;;;;3.60;2.30;;;;;;;39.85;23.47;99829.23;106366;1254;66519;-85
2023/07/01 10:30:47;;;;;;;3.30;2.40;;;;;;;39.84;23.69;99834.15;106335;1257;61279;-83
2023/07/01 10:33:35;;;;;;;2.40;2.10;;;;;;;39.93;23.55;99827.89;106474;1254;63960;-83
2023/07/01 10:36:23;;;;;;;4.30;2.70;;;;;;;40.08;23.05;99824.00;106385;1257;61324;-83
2023/07/01 10:39:31;;;;;;;2.60;2.40;;;;;;;40.23;23.40;99818.53;106444;1254;61228;-83
2023/07/01 10:42:33;;;;;;;2.90;2.60;;;;;;;40.45;22.55;99816.21;106509;1255;65730;-83
2023/07/01 10:45:24;;;;;;;;;;;;;;;40.61;22.24;99815.05;106589;1254;61759;-81
2023/07/01 10:48:16;;;;;;;2.40;2.00;;;;;;;40.69;21.91;99817.19;106406;1254;64411;-83
2023/07/01 10:51:11;;;;;;;2.30;1.90;;;;;;;40.64;21.47;99816.35;106430;1251;61317;-82
2023/07/01 10:54:07;;;;;;;3.80;2.00;;;;;;;40.51;21.69;99814.92;106318;1254;61326;-82
2023/07/01 10:57:14;;;;;;;2.20;1.90;;;;;;;40.55;21.53;99815.02;106460;1253;65791;-82
2023/07/01 11:00:35;;;;;;;4.00;2.00;;;;;;;40.63;21.89;99814.76;106526;1254;61211;-84
2023/07/01 11:03:35;;;;;;;1.90;1.70;;;;;;;40.67;21.23;99814.52;106400;1254;62554;-83
2023/07/01 11:06:24;;;;;;;2.00;1.80;;;;;;;40.70;21.08;99813.66;106240;1254;61231;-84
2023/07/01 11:09:13;;;;;;;3.00;2.30;;;;;;;41.01;21.29;99809.82;106209;1252;61163;-82
2023/07/01 11:12:02;;;;;;;2.70;2.20;;;;;;;41.18;21.23;99807.64;106617;1254;67222;-80
2023/07/01 11:14:52;;;;;;;2.20;2.00;;;;;;;40.93;21.61;99808.27;106789;1251;61260;-84
2023/07/01 11:17:50;;;;;;;5.60;2.10;;;;;;;40.60;22.35;99814.30;106389;1254;63998;-84
2023/07/01 11:20:48;;;;;;;3.40;2.00;;;;;;;40.43;22.30;99814.01;106245;1253;61260;-84
2023/07/01 11:23:37;;;;;;;1.90;1.70;;;;;;;40.30;21.96;99812.70;106343;1256;61151;-81
2023/07/01 11:26:29;;;;;;;2.20;1.90;;;;;;;40.32;21.41;99809.45;106293;1254;66164;-82
2023/07/01 11:29:18;;;;;;;2.10;1.90;;;;;;;40.62;21.22;99807.73;106293;1254;61554;-84
2023/07/01 11:32:09;;;;;;;1.80;1.60;;;;;;;40.88;20.96;99801.35;106330;1253;64527;-84
2023/07/01 11:34:58;;;;;;;1.90;1.60;;;;;;;41.06;20.65;99799.66;106350;1257;61813;-84
2023/07/01 11:37:46;;;;;;;5.60;2.30;;;;;;;41.27;20.80;99793.02;106297;1254;61244;-84
2023/07/01 11:40:39;;;;;;;4.20;2.20;;;;;;;41.46;20.72;99795.62;106412;1256;65851;-82
2023/07/01 11:43:27;;;;;;;2.40;1.60;;;;;;;41.61;20.18;99798.30;106409;1254;60368;-83
2023/07/01 11:46:15;;;;;;;3.00;2.20;;;;;;;41.55;20.60;99795.97;106319;1254;62610;-83
2023/07/01 11:49:13;;;;;;;2.30;1.90;;;;;;;41.38;20.39;99794.10;106427;1254;61304;-84
2023/07/01 11:52:02;;;;;;;3.00;1.90;;;;;;;41.35;20.56;99789.39;106652;1252;61246;-82
2023/07/01 11:54:54;;;;;;;2.20;1.90;;;;;;;41.46;20.45;99786.04;106425;1251;65765;-84
2023/07/01 11:57:42;;;;;;;4.80;1.70;;;;;;;41.52;20.28;99783.17;106322;1251;61320;-84
2023/07/01 12:00:31;;;;;;;3.90;1.90;;;;;;;41.46;20.49;99784.00;106328;1254;64960;-81
2023/07/01 12:03:21;;;;;;;3.00;2.20;;;;;;;41.39;20.97;99779.20;106346;1251;61567;-84
2023/07/01 12:06:17;;;;;;;3.70;2.20;;;;;;;41.57;21.05;99780.48;106423;1254;61333;-82
2023/07/01 12:09:08;;;;;;;3.40;2.00;;;;;;;41.64;21.11;99780.19;106449;1254;66814;-82
2023/07/01 12:11:56;;;;;;;3.10;2.30;;;;;;;41.65;20.89;99781.64;106506;1256;61226;-82
2023/07/01 12:14:48;;;;;;;2.50;1.90;;;;;;;41.75;20.68;99775.60;106375;1254;63912;-84
2023/07/01 12:17:37;;;;;;;2.70;2.00;;;;;;;41.63;20.84;99782.58;106317;1254;61359;-82
2023/07/01 12:20:25;;;;;;;3.90;2.10;;;;;;;41.42;21.13;99783.34;106453;1254;61161;-84
2023/07/01 12:23:13;;;;;;;3.90;2.10;;;;;;;41.11;21.29;99781.73;106422;1251;64841;-82
2023/07/01 12:26:01;;;;;;;2.80;2.20;;;;;;;40.94;21.59;99779.23;106391;1254;61336;-84
2023/07/01 12:28:50;;;;;;;3.20;2.10;;;;;;;40.92;21.30;99778.42;106400;1254;64078;-84
2023/07/01 12:31:38;;;;;;;2.70;2.10;;;;;;;40.80;21.40;99775.29;106405;1253;61400;-82
2023/07/01 12:34:26;;;;;;;10.70;2.80;;;;;;;40.66;21.55;99775.90;106388;1254;61147;-82
2023/07/01 12:37:14;;;;;;;6.80;2.40;;;;;;;40.42;22.37;99778.70;106509;1255;65853;-84
2023/07/01 12:40:04;;;;;;;2.60;2.20;;;;;;;40.37;22.61;99776.41;106406;1255;61289;-83
2023/07/01 12:42:52;;;;;;;2.80;2.30;;;;;;;40.57;22.41;99771.13;106357;1254;64043;-83
2023/07/01 12:45:40;;;;;;;2.70;2.10;;;;;;;40.80;22.08;99761.02;106571;1256;61336;-83
2023/07/01 12:48:28;;;;;;;2.50;1.90;;;;;;;41.14;21.62;99758.16;106426;1254;61260;-81
2023/07/01 12:51:16;;;;;;;2.70;2.00;;;;;;;41.43;21.28;99758.70;106398;1255;66492;-81
2023/07/01 12:54:05;;;;;;;6.40;2.10;;;;;;;41.63;21.11;99755.77;106389;1251;61260;-79
2023/07/01 12:57:05;;;;;;;3.20;2.20;;;;;;;42.03;21.35;99757.09;106524;1251;64028;-79
2023/07/01 12:59:54;;;;;;;4.60;1.80;;;;;;;42.42;20.43;99756.11;106475;1250;61329;-81
2023/07/01 13:02:45;;;;;;;2.90;2.00;;;;;;;42.59;19.51;99755.69;106367;1254;61279;-81
2023/07/01 13:05:33;;;;;;;35.80;16.70;;;;;;;42.65;19.94;99751.05;106480;1251;66027;-81
2023/07/01 13:08:23;;;;;;;82.60;36.80;;;;;;;42.68;19.71;99746.62;106392;1251;61349;-84
2023/07/01 13:11:14;;;;;;;3.70;2.50;;;;;;;42.55;19.71;99750.77;106386;1254;63799;-80